Mount Hermon, Massachusetts
Current Conditions -  °F | °C
As of 12:52 AM on Tuesday 21 Oct 2014 (Local Time) from KORE Reporting Station
Broken Clouds Broken Clouds  
Wind Chill: 44°   Ceiling: 12000
Heat Index: 44°   Visibility: 10mi
Dew Point: 41°   Wind: 0mph
Humidity: 89%   Direction: NA
Pressure: 29.98"   Gusts: NA
Location:  42.6787°N, 72.4874°W
Report Text: KORE 210452Z AUTO 00000KT 10SM BKN120 07/05 A2998 RMK AO2 SLP155 T00670050 401281017
Loading
Personal Weather Stations






























Interactive Weather Map
Tropical Storm Tracking
New forecast layout! Learn more

10-Day Weather Forecast

Advertisements
Track Severe Weather on mobile